sensor_id;sensor_type;location;lat;lon;timestamp;pressure;altitude;pressure_sealevel;temperature;humidity
57048;BME280;42934;54.294;18.598;2024-02-23T00:00:16;98223.19;;;7.40;96.10
57048;BME280;42934;54.294;18.598;2024-02-23T00:03:07;98219.47;;;7.44;96.26
57048;BME280;42934;54.294;18.598;2024-02-23T00:05:38;98221.75;;;7.50;96.19
57048;BME280;42934;54.294;18.598;2024-02-23T00:08:07;98218.94;;;7.53;95.64
57048;BME280;42934;54.294;18.598;2024-02-23T00:10:37;98213.97;;;7.48;96.04
57048;BME280;42934;54.294;18.598;2024-02-23T00:13:07;98208.38;;;7.55;95.75
57048;BME280;42934;54.294;18.598;2024-02-23T00:15:36;98196.16;;;7.55;95.79
57048;BME280;42934;54.294;18.598;2024-02-23T00:18:07;98188.53;;;7.52;95.50
57048;BME280;42934;54.294;18.598;2024-02-23T00:20:36;98175.06;;;7.44;95.76
57048;BME280;42934;54.294;18.598;2024-02-23T00:23:05;98180.28;;;7.44;96.11
57048;BME280;42934;54.294;18.598;2024-02-23T00:25:35;98167.75;;;7.50;95.91
57048;BME280;42934;54.294;18.598;2024-02-23T00:28:05;98173.88;;;7.49;95.82
57048;BME280;42934;54.294;18.598;2024-02-23T00:30:34;98166.59;;;7.55;95.81
57048;BME280;42934;54.294;18.598;2024-02-23T00:33:04;98165.22;;;7.49;95.82
57048;BME280;42934;54.294;18.598;2024-02-23T00:35:35;98166.38;;;7.29;95.30
57048;BME280;42934;54.294;18.598;2024-02-23T00:38:05;98173.59;;;7.40;96.49
57048;BME280;42934;54.294;18.598;2024-02-23T00:40:35;98171.44;;;7.46;96.23
57048;BME280;42934;54.294;18.598;2024-02-23T00:43:05;98170.03;;;7.41;96.12
57048;BME280;42934;54.294;18.598;2024-02-23T00:45:34;98164.63;;;7.44;96.21
57048;BME280;42934;54.294;18.598;2024-02-23T00:48:04;98155.53;;;7.51;95.66
57048;BME280;42934;54.294;18.598;2024-02-23T00:50:35;98155.41;;;7.53;95.41
57048;BME280;42934;54.294;18.598;2024-02-23T00:53:05;98136.94;;;7.56;95.58
57048;BME280;42934;54.294;18.598;2024-02-23T00:55:34;98142.28;;;7.54;95.67
57048;BME280;42934;54.294;18.598;2024-02-23T00:58:04;98136.94;;;7.56;95.21
57048;BME280;42934;54.294;18.598;2024-02-23T01:00:33;98138.53;;;7.58;94.99
57048;BME280;42934;54.294;18.598;2024-02-23T01:03:03;98142.19;;;7.41;96.06
57048;BME280;42934;54.294;18.598;2024-02-23T01:05:34;98139.56;;;7.56;95.48
57048;BME280;42934;54.294;18.598;2024-02-23T01:08:06;98144.06;;;7.54;95.67
57048;BME280;42934;54.294;18.598;2024-02-23T01:10:35;98140.41;;;7.42;95.46
57048;BME280;42934;54.294;18.598;2024-02-23T01:13:05;98122.66;;;7.47;95.30
57048;BME280;42934;54.294;18.598;2024-02-23T01:15:34;98121.84;;;7.46;95.94
57048;BME280;42934;54.294;18.598;2024-02-23T01:18:04;98134.72;;;7.49;95.58
57048;BME280;42934;54.294;18.598;2024-02-23T01:20:37;98119.72;;;7.53;95.39
57048;BME280;42934;54.294;18.598;2024-02-23T01:23:06;98118.22;;;7.49;95.23
57048;BME280;42934;54.294;18.598;2024-02-23T01:25:35;98111.50;;;7.45;95.68
57048;BME280;42934;54.294;18.598;2024-02-23T01:28:05;98112.06;;;7.50;95.23
57048;BME280;42934;54.294;18.598;2024-02-23T01:30:34;98111.13;;;7.51;95.40
57048;BME280;42934;54.294;18.598;2024-02-23T01:33:04;98112.34;;;7.45;95.97
57048;BME280;42934;54.294;18.598;2024-02-23T01:35:33;98105.53;;;7.43;95.93
57048;BME280;42934;54.294;18.598;2024-02-23T01:38:06;98105.06;;;7.36;97.00
57048;BME280;42934;54.294;18.598;2024-02-23T01:40:35;98103.19;;;7.53;96.22
57048;BME280;42934;54.294;18.598;2024-02-23T01:43:07;98104.59;;;7.44;97.23
57048;BME280;42934;54.294;18.598;2024-02-23T01:45:39;98103.84;;;7.42;97.00
57048;BME280;42934;54.294;18.598;2024-02-23T01:48:09;98097.31;;;7.49;97.20
57048;BME280;42934;54.294;18.598;2024-02-23T01:50:38;98100.69;;;7.51;97.06
57048;BME280;42934;54.294;18.598;2024-02-23T01:53:11;98097.13;;;7.52;96.60
57048;BME280;42934;54.294;18.598;2024-02-23T01:55:41;98105.63;;;7.41;97.47
57048;BME280;42934;54.294;18.598;2024-02-23T01:58:11;98093.03;;;7.48;97.98
57048;BME280;42934;54.294;18.598;2024-02-23T02:00:41;98098.53;;;7.43;98.78
57048;BME280;42934;54.294;18.598;2024-02-23T02:03:10;98099.75;;;7.52;97.71
57048;BME280;42934;54.294;18.598;2024-02-23T02:05:40;98099.38;;;7.44;98.83
57048;BME280;42934;54.294;18.598;2024-02-23T02:08:12;98100.56;;;7.53;97.72
57048;BME280;42934;54.294;18.598;2024-02-23T02:10:41;98099.75;;;7.52;98.42
57048;BME280;42934;54.294;18.598;2024-02-23T02:13:12;98109.28;;;7.53;97.83
57048;BME280;42934;54.294;18.598;2024-02-23T02:15:41;98103.94;;;7.55;98.16
57048;BME280;42934;54.294;18.598;2024-02-23T02:18:11;98098.00;;;7.38;98.56
57048;BME280;42934;54.294;18.598;2024-02-23T02:20:50;98104.06;;;7.53;98.06
57048;BME280;42934;54.294;18.598;2024-02-23T02:23:22;98106.66;;;7.39;98.73
57048;BME280;42934;54.294;18.598;2024-02-23T02:25:54;98099.38;;;7.44;99.47
57048;BME280;42934;54.294;18.598;2024-02-23T02:28:24;98104.31;;;7.48;99.46
57048;BME280;42934;54.294;18.598;2024-02-23T02:30:54;98108.97;;;7.43;99.26
57048;BME280;42934;54.294;18.598;2024-02-23T02:33:24;98092.28;;;7.46;100.00
57048;BME280;42934;54.294;18.598;2024-02-23T02:35:53;98098.16;;;7.49;100.00
57048;BME280;42934;54.294;18.598;2024-02-23T02:38:24;98099.28;;;7.45;100.00
57048;BME280;42934;54.294;18.598;2024-02-23T02:40:53;98090.06;;;7.54;100.00
57048;BME280;42934;54.294;18.598;2024-02-23T02:43:22;98090.69;;;7.43;100.00
57048;BME280;42934;54.294;18.598;2024-02-23T02:45:52;98094.50;;;7.38;100.00
57048;BME280;42934;54.294;18.598;2024-02-23T02:48:21;98106.66;;;7.53;100.00
57048;BME280;42934;54.294;18.598;2024-02-23T02:50:51;98105.16;;;7.49;100.00
57048;BME280;42934;54.294;18.598;2024-02-23T02:53:23;98105.59;;;7.56;100.00
57048;BME280;42934;54.294;18.598;2024-02-23T02:55:52;98110.00;;;7.55;100.00
57048;BME280;42934;54.294;18.598;2024-02-23T02:58:21;98101.34;;;7.55;100.00
57048;BME280;42934;54.294;18.598;2024-02-23T03:00:51;98105.44;;;7.44;100.00
57048;BME280;42934;54.294;18.598;2024-02-23T03:03:20;98103.94;;;7.55;100.00
57048;BME280;42934;54.294;18.598;2024-02-23T03:05:50;98096.41;;;7.50;100.00
57048;BME280;42934;54.294;18.598;2024-02-23T03:08:20;98091.84;;;7.54;100.00
57048;BME280;42934;54.294;18.598;2024-02-23T03:10:51;98092.28;;;7.46;100.00
57048;BME280;42934;54.294;18.598;2024-02-23T03:13:21;98094.25;;;7.57;100.00
57048;BME280;42934;54.294;18.598;2024-02-23T03:15:50;98083.16;;;7.53;100.00
57048;BME280;42934;54.294;18.598;2024-02-23T03:18:19;98084.06;;;7.38;100.00
57048;BME280;42934;54.294;18.598;2024-02-23T03:20:49;98095.84;;;7.45;100.00
57048;BME280;42934;54.294;18.598;2024-02-23T03:23:18;98102.53;;;7.35;100.00
57048;BME280;42934;54.294;18.598;2024-02-23T03:25:47;98093.50;;;7.40;100.00
57048;BME280;42934;54.294;18.598;2024-02-23T03:28:18;98105.44;;;7.30;100.00
57048;BME280;42934;54.294;18.598;2024-02-23T03:30:47;98103.38;;;7.49;100.00
57048;BME280;42934;54.294;18.598;2024-02-23T03:33:17;98109.34;;;7.51;100.00
57048;BME280;42934;54.294;18.598;2024-02-23T03:35:46;98092.09;;;7.49;100.00
57048;BME280;42934;54.294;18.598;2024-02-23T03:38:15;98099.19;;;7.61;100.00
57048;BME280;42934;54.294;18.598;2024-02-23T03:40:45;98095.09;;;7.57;100.00
57048;BME280;42934;54.294;18.598;2024-02-23T03:43:14;98105.41;;;7.59;100.00
57048;BME280;42934;54.294;18.598;2024-02-23T03:45:45;98104.50;;;7.60;100.00
57048;BME280;42934;54.294;18.598;2024-02-23T03:48:14;98118.84;;;7.53;100.00
57048;BME280;42934;54.294;18.598;2024-02-23T03:50:43;98116.53;;;7.48;100.00
57048;BME280;42934;54.294;18.598;2024-02-23T03:53:13;98118.13;;;7.50;100.00
57048;BME280;42934;54.294;18.598;2024-02-23T03:55:42;98108.16;;;7.57;100.00
57048;BME280;42934;54.294;18.598;2024-02-23T03:58:11;98127.75;;;7.50;100.00
57048;BME280;42934;54.294;18.598;2024-02-23T04:00:41;98143.41;;;7.50;100.00
57048;BME280;42934;54.294;18.598;2024-02-23T04:03:12;98137.31;;;7.35;100.00
57048;BME280;42934;54.294;18.598;2024-02-23T04:05:42;98129.59;;;7.48;100.00
57048;BME280;42934;54.294;18.598;2024-02-23T04:08:11;98122.31;;;7.53;100.00
57048;BME280;42934;54.294;18.598;2024-02-23T04:10:40;98134.91;;;7.61;100.00
57048;BME280;42934;54.294;18.598;2024-02-23T04:13:10;98144.47;;;7.32;100.00
57048;BME280;42934;54.294;18.598;2024-02-23T04:15:41;98134.88;;;7.46;100.00
57048;BME280;42934;54.294;18.598;2024-02-23T04:18:12;98142.84;;;7.45;100.00
57048;BME280;42934;54.294;18.598;2024-02-23T04:20:42;98130.81;;;7.57;100.00
57048;BME280;42934;54.294;18.598;2024-02-23T04:23:12;98139.75;;;7.53;100.00
57048;BME280;42934;54.294;18.598;2024-02-23T04:25:42;98142.09;;;7.57;100.00
57048;BME280;42934;54.294;18.598;2024-02-23T04:28:11;98150.19;;;7.67;100.00
57048;BME280;42934;54.294;18.598;2024-02-23T04:30:40;98157.94;;;7.40;100.00
57048;BME280;42934;54.294;18.598;2024-02-23T04:33:11;98155.59;;;7.49;100.00
57048;BME280;42934;54.294;18.598;2024-02-23T04:35:41;98154.13;;;7.60;100.00
57048;BME280;42934;54.294;18.598;2024-02-23T04:38:11;98157.38;;;7.63;100.00
57048;BME280;42934;54.294;18.598;2024-02-23T04:40:40;98160.81;;;7.64;100.00
57048;BME280;42934;54.294;18.598;2024-02-23T04:43:10;98160.63;;;7.67;100.00
57048;BME280;42934;54.294;18.598;2024-02-23T04:45:39;98161.22;;;7.72;100.00
57048;BME280;42934;54.294;18.598;2024-02-23T04:48:08;98158.97;;;7.80;100.00
57048;BME280;42934;54.294;18.598;2024-02-23T04:50:39;98164.66;;;7.87;100.00
57048;BME280;42934;54.294;18.598;2024-02-23T04:53:08;98173.31;;;7.73;100.00
57048;BME280;42934;54.294;18.598;2024-02-23T04:55:37;98177.06;;;7.83;100.00
57048;BME280;42934;54.294;18.598;2024-02-23T04:58:07;98174.91;;;7.61;100.00
57048;BME280;42934;54.294;18.598;2024-02-23T05:00:36;98177.63;;;7.74;100.00
57048;BME280;42934;54.294;18.598;2024-02-23T05:03:06;98175.38;;;7.82;100.00
57048;BME280;42934;54.294;18.598;2024-02-23T05:05:41;98179.13;;;7.78;100.00
57048;BME280;42934;54.294;18.598;2024-02-23T05:08:10;98185.81;;;7.82;100.00
57048;BME280;42934;54.294;18.598;2024-02-23T05:10:39;98185.47;;;7.74;100.00
57048;BME280;42934;54.294;18.598;2024-02-23T05:13:09;98199.38;;;7.89;100.00
57048;BME280;42934;54.294;18.598;2024-02-23T05:15:38;98199.63;;;7.84;100.00
57048;BME280;42934;54.294;18.598;2024-02-23T05:18:07;98197.31;;;7.80;100.00
57048;BME280;42934;54.294;18.598;2024-02-23T05:20:36;98208.13;;;7.88;100.00
57048;BME280;42934;54.294;18.598;2024-02-23T05:23:07;98194.97;;;7.75;100.00
57048;BME280;42934;54.294;18.598;2024-02-23T05:25:36;98206.66;;;7.84;100.00
57048;BME280;42934;54.294;18.598;2024-02-23T05:28:06;98203.38;;;7.94;100.00
57048;BME280;42934;54.294;18.598;2024-02-23T05:30:35;98219.34;;;7.90;100.00
57048;BME280;42934;54.294;18.598;2024-02-23T05:33:05;98215.63;;;7.80;100.00
57048;BME280;42934;54.294;18.598;2024-02-23T05:35:34;98217.47;;;7.92;100.00
57048;BME280;42934;54.294;18.598;2024-02-23T05:38:05;98217.84;;;8.00;100.00
57048;BME280;42934;54.294;18.598;2024-02-23T05:40:35;98226.53;;;8.01;100.00
57048;BME280;42934;54.294;18.598;2024-02-23T05:43:04;98232.47;;;8.03;100.00
57048;BME280;42934;54.294;18.598;2024-02-23T05:45:34;98240.44;;;8.01;100.00
57048;BME280;42934;54.294;18.598;2024-02-23T05:48:04;98245.38;;;7.91;100.00
57048;BME280;42934;54.294;18.598;2024-02-23T05:50:33;98260.19;;;7.91;100.00
57048;BME280;42934;54.294;18.598;2024-02-23T05:53:03;98259.09;;;8.09;100.00
57048;BME280;42934;54.294;18.598;2024-02-23T05:55:34;98259.56;;;8.02;100.00
57048;BME280;42934;54.294;18.598;2024-02-23T05:58:03;98266.75;;;7.98;100.00
57048;BME280;42934;54.294;18.598;2024-02-23T06:00:33;98260.97;;;8.07;100.00
57048;BME280;42934;54.294;18.598;2024-02-23T06:03:03;98262.72;;;7.92;100.00
57048;BME280;42934;54.294;18.598;2024-02-23T06:05:32;98262.16;;;8.02;100.00
57048;BME280;42934;54.294;18.598;2024-02-23T06:08:02;98270.47;;;8.08;100.00
57048;BME280;42934;54.294;18.598;2024-02-23T06:10:32;98267.50;;;8.00;100.00
57048;BME280;42934;54.294;18.598;2024-02-23T06:13:02;98272.38;;;8.06;100.00
57048;BME280;42934;54.294;18.598;2024-02-23T06:15:31;98273.09;;;8.08;100.00
57048;BME280;42934;54.294;18.598;2024-02-23T06:18:01;98286.66;;;8.15;100.00
57048;BME280;42934;54.294;18.598;2024-02-23T06:20:30;98288.22;;;8.17;100.00
57048;BME280;42934;54.294;18.598;2024-02-23T06:23:00;98288.59;;;8.11;100.00
57048;BME280;42934;54.294;18.598;2024-02-23T06:25:29;98293.09;;;8.09;100.00
57048;BME280;42934;54.294;18.598;2024-02-23T06:28:00;98305.97;;;8.12;100.00
57048;BME280;42934;54.294;18.598;2024-02-23T06:30:30;98311.84;;;8.16;100.00
57048;BME280;42934;54.294;18.598;2024-02-23T06:32:59;98320.72;;;8.28;100.00
57048;BME280;42934;54.294;18.598;2024-02-23T06:35:28;98323.16;;;8.31;100.00
57048;BME280;42934;54.294;18.598;2024-02-23T06:37:58;98328.94;;;8.36;100.00
57048;BME280;42934;54.294;18.598;2024-02-23T06:40:28;98332.13;;;8.27;100.00
57048;BME280;42934;54.294;18.598;2024-02-23T06:43:14;98336.78;;;8.22;100.00
57048;BME280;42934;54.294;18.598;2024-02-23T06:45:47;98344.31;;;8.26;100.00
57048;BME280;42934;54.294;18.598;2024-02-23T06:48:16;98352.75;;;8.31;100.00
57048;BME280;42934;54.294;18.598;2024-02-23T06:50:46;98352.75;;;8.31;100.00
57048;BME280;42934;54.294;18.598;2024-02-23T06:53:16;98363.84;;;8.35;100.00
57048;BME280;42934;54.294;18.598;2024-02-23T06:55:45;98372.81;;;8.31;100.00
57048;BME280;42934;54.294;18.598;2024-02-23T06:58:16;98383.84;;;8.36;100.00
57048;BME280;42934;54.294;18.598;2024-02-23T07:00:46;98388.25;;;8.35;100.00
57048;BME280;42934;54.294;18.598;2024-02-23T07:03:16;98399.16;;;8.28;100.00
57048;BME280;42934;54.294;18.598;2024-02-23T07:05:46;98402.59;;;8.28;100.00
57048;BME280;42934;54.294;18.598;2024-02-23T07:08:16;98418.38;;;8.27;100.00
57048;BME280;42934;54.294;18.598;2024-02-23T07:10:45;98410.44;;;8.28;100.00
57048;BME280;42934;54.294;18.598;2024-02-23T07:13:17;98412.97;;;8.30;100.00
57048;BME280;42934;54.294;18.598;2024-02-23T07:15:47;98416.13;;;8.35;100.00
57048;BME280;42934;54.294;18.598;2024-02-23T07:18:16;98422.91;;;8.39;100.00
57048;BME280;42934;54.294;18.598;2024-02-23T07:20:48;98427.50;;;8.50;100.00
57048;BME280;42934;54.294;18.598;2024-02-23T07:23:18;98430.28;;;8.47;100.00
57048;BME280;42934;54.294;18.598;2024-02-23T07:25:47;98425.00;;;8.48;100.00
57048;BME280;42934;54.294;18.598;2024-02-23T07:28:20;98443.94;;;8.52;100.00
57048;BME280;42934;54.294;18.598;2024-02-23T07:30:51;98444.53;;;8.57;100.00
57048;BME280;42934;54.294;18.598;2024-02-23T07:33:21;98446.38;;;8.55;100.00
57048;BME280;42934;54.294;18.598;2024-02-23T07:35:50;98450.31;;;8.62;100.00
57048;BME280;42934;54.294;18.598;2024-02-23T07:38:19;98452.75;;;8.65;100.00
57048;BME280;42934;54.294;18.598;2024-02-23T07:40:49;98460.31;;;8.70;100.00
57048;BME280;42934;54.294;18.598;2024-02-23T07:43:19;98464.53;;;8.72;100.00
57048;BME280;42934;54.294;18.598;2024-02-23T07:45:49;98461.72;;;8.75;100.00
57048;BME280;42934;54.294;18.598;2024-02-23T07:48:18;98470.91;;;8.82;100.00
57048;BME280;42934;54.294;18.598;2024-02-23T07:50:48;98480.03;;;8.75;100.00
57048;BME280;42934;54.294;18.598;2024-02-23T07:53:17;98483.69;;;8.87;100.00
57048;BME280;42934;54.294;18.598;2024-02-23T07:55:47;98481.25;;;8.84;99.39
57048;BME280;42934;54.294;18.598;2024-02-23T07:58:16;98492.34;;;8.73;98.28
57048;BME280;42934;54.294;18.598;2024-02-23T08:00:48;98504.34;;;8.77;97.66
57048;BME280;42934;54.294;18.598;2024-02-23T08:03:18;98497.53;;;8.89;96.90
57048;BME280;42934;54.294;18.598;2024-02-23T08:05:47;98508.66;;;8.93;96.40
57048;BME280;42934;54.294;18.598;2024-02-23T08:08:16;98505.66;;;8.84;94.98
57048;BME280;42934;54.294;18.598;2024-02-23T08:10:45;98517.53;;;8.90;94.49
57048;BME280;42934;54.294;18.598;2024-02-23T08:13:15;98520.06;;;8.92;93.51
57048;BME280;42934;54.294;18.598;2024-02-23T08:15:47;98523.53;;;8.92;93.17
57048;BME280;42934;54.294;18.598;2024-02-23T08:18:16;98528.81;;;8.91;91.79
57048;BME280;42934;54.294;18.598;2024-02-23T08:20:48;98539.03;;;8.95;91.39
57048;BME280;42934;54.294;18.598;2024-02-23T08:23:18;98547.34;;;9.02;91.07
57048;BME280;42934;54.294;18.598;2024-02-23T08:25:48;98556.88;;;8.89;88.85
57048;BME280;42934;54.294;18.598;2024-02-23T08:28:18;98567.91;;;8.94;89.17
57048;BME280;42934;54.294;18.598;2024-02-23T08:30:49;98560.75;;;8.97;88.11
57048;BME280;42934;54.294;18.598;2024-02-23T08:33:18;98561.28;;;9.02;87.49
57048;BME280;42934;54.294;18.598;2024-02-23T08:35:47;98567.34;;;9.03;87.55
57048;BME280;42934;54.294;18.598;2024-02-23T08:38:17;98566.63;;;9.01;85.41
57048;BME280;42934;54.294;18.598;2024-02-23T08:40:47;98567.66;;;8.98;84.08
57048;BME280;42934;54.294;18.598;2024-02-23T08:43:17;98568.66;;;8.96;82.07
57048;BME280;42934;54.294;18.598;2024-02-23T08:45:49;98587.00;;;8.96;80.77
57048;BME280;42934;54.294;18.598;2024-02-23T08:48:18;98594.47;;;9.02;81.82
57048;BME280;42934;54.294;18.598;2024-02-23T08:50:48;98601.19;;;8.92;79.66
57048;BME280;42934;54.294;18.598;2024-02-23T08:53:19;98606.25;;;8.95;78.25
57048;BME280;42934;54.294;18.598;2024-02-23T08:55:48;98619.53;;;8.92;78.46
57048;BME280;42934;54.294;18.598;2024-02-23T08:58:18;98622.50;;;8.85;77.02
57048;BME280;42934;54.294;18.598;2024-02-23T09:00:48;98634.28;;;8.93;76.19
57048;BME280;42934;54.294;18.598;2024-02-23T09:03:19;98634.47;;;8.90;74.91
57048;BME280;42934;54.294;18.598;2024-02-23T09:05:50;98641.66;;;8.86;74.77
57048;BME280;42934;54.294;18.598;2024-02-23T09:08:21;98653.91;;;8.85;74.67
57048;BME280;42934;54.294;18.598;2024-02-23T09:10:52;98658.19;;;8.86;74.80
57048;BME280;42934;54.294;18.598;2024-02-23T09:13:22;98667.53;;;8.91;74.92
57048;BME280;42934;54.294;18.598;2024-02-23T09:15:52;98669.97;;;8.94;74.45
57048;BME280;42934;54.294;18.598;2024-02-23T09:18:22;98683.94;;;8.94;75.05
57048;BME280;42934;54.294;18.598;2024-02-23T09:20:51;98692.88;;;8.90;74.72
57048;BME280;42934;54.294;18.598;2024-02-23T09:23:20;98684.78;;;8.95;75.31
57048;BME280;42934;54.294;18.598;2024-02-23T09:25:50;98695.81;;;9.00;75.84
57048;BME280;42934;54.294;18.598;2024-02-23T09:28:19;98696.63;;;8.86;73.84
57048;BME280;42934;54.294;18.598;2024-02-23T09:30:48;98697.34;;;8.88;74.04
57048;BME280;42934;54.294;18.598;2024-02-23T09:33:19;98702.16;;;8.96;74.90
57048;BME280;42934;54.294;18.598;2024-02-23T09:35:48;98713.16;;;8.86;73.79
57048;BME280;42934;54.294;18.598;2024-02-23T09:38:18;98710.72;;;8.83;71.41
57048;BME280;42934;54.294;18.598;2024-02-23T09:40:47;98718.09;;;8.91;72.56
57048;BME280;42934;54.294;18.598;2024-02-23T09:43:17;98709.25;;;8.94;72.06
57048;BME280;42934;54.294;18.598;2024-02-23T09:45:51;98714.66;;;8.91;71.00
57048;BME280;42934;54.294;18.598;2024-02-23T09:48:22;98724.88;;;8.95;71.16
57048;BME280;42934;54.294;18.598;2024-02-23T09:50:53;98738.31;;;8.89;70.07
57048;BME280;42934;54.294;18.598;2024-02-23T09:53:24;98735.94;;;8.84;69.29
57048;BME280;42934;54.294;18.598;2024-02-23T09:55:54;98718.47;;;8.85;68.18
57048;BME280;42934;54.294;18.598;2024-02-23T09:58:24;98726.72;;;8.93;68.72
57048;BME280;42934;54.294;18.598;2024-02-23T10:00:58;98748.13;;;8.85;66.28
57048;BME280;42934;54.294;18.598;2024-02-23T10:03:30;98757.53;;;8.88;66.26
57048;BME280;42934;54.294;18.598;2024-02-23T10:06:00;98758.06;;;8.95;66.77
57048;BME280;42934;54.294;18.598;2024-02-23T10:08:30;98771.56;;;8.87;64.83
57048;BME280;42934;54.294;18.598;2024-02-23T10:11:01;98767.75;;;8.93;65.58
57048;BME280;42934;54.294;18.598;2024-02-23T10:13:31;98784.31;;;8.93;65.76
57048;BME280;42934;54.294;18.598;2024-02-23T10:16:00;98795.38;;;8.98;66.00
57048;BME280;42934;54.294;18.598;2024-02-23T10:18:43;98798.59;;;9.03;66.53
57048;BME280;42934;54.294;18.598;2024-02-23T10:21:13;98809.63;;;9.08;66.89
57048;BME280;42934;54.294;18.598;2024-02-23T10:23:43;98815.91;;;9.06;66.51
57048;BME280;42934;54.294;18.598;2024-02-23T10:26:13;98838.09;;;8.99;65.82
57048;BME280;42934;54.294;18.598;2024-02-23T10:28:47;98847.31;;;9.06;66.71
57048;BME280;42934;54.294;18.598;2024-02-23T10:31:16;98848.91;;;9.08;66.52
57048;BME280;42934;54.294;18.598;2024-02-23T10:33:47;98855.25;;;9.04;66.10
57048;BME280;42934;54.294;18.598;2024-02-23T10:36:21;98864.03;;;9.03;66.09
57048;BME280;42934;54.294;18.598;2024-02-23T10:38:55;98869.09;;;9.06;67.06
57048;BME280;42934;54.294;18.598;2024-02-23T10:41:27;98875.50;;;9.17;67.29
57048;BME280;42934;54.294;18.598;2024-02-23T10:44:00;98879.41;;;9.09;64.86
57048;BME280;42934;54.294;18.598;2024-02-23T10:46:32;98875.59;;;9.15;65.24
57048;BME280;42934;54.294;18.598;2024-02-23T10:49:03;98869.50;;;9.15;64.86
57048;BME280;42934;54.294;18.598;2024-02-23T10:51:35;98873.72;;;9.17;65.03
57048;BME280;42934;54.294;18.598;2024-02-23T10:54:06;98879.97;;;9.30;65.59
57048;BME280;42934;54.294;18.598;2024-02-23T10:56:36;98882.34;;;9.35;65.41
57048;BME280;42934;54.294;18.598;2024-02-23T10:59:06;98889.88;;;9.41;65.27
57048;BME280;42934;54.294;18.598;2024-02-23T11:01:37;98898.88;;;9.51;65.49
57048;BME280;42934;54.294;18.598;2024-02-23T11:04:09;98891.03;;;9.51;65.10
57048;BME280;42934;54.294;18.598;2024-02-23T11:06:38;98898.13;;;9.49;64.88
57048;BME280;42934;54.294;18.598;2024-02-23T11:09:12;98902.34;;;9.52;65.25
57048;BME280;42934;54.294;18.598;2024-02-23T11:11:54;98910.38;;;9.49;63.73
57048;BME280;42934;54.294;18.598;2024-02-23T11:14:31;98907.94;;;9.46;64.12
57048;BME280;42934;54.294;18.598;2024-02-23T11:17:01;98904.53;;;9.44;63.62
57048;BME280;42934;54.294;18.598;2024-02-23T11:19:37;98904.47;;;9.45;63.93
57048;BME280;42934;54.294;18.598;2024-02-23T11:22:10;98915.13;;;9.42;64.57
57048;BME280;42934;54.294;18.598;2024-02-23T11:24:52;98931.09;;;9.38;64.50
57048;BME280;42934;54.294;18.598;2024-02-23T11:27:24;98927.63;;;9.37;64.29
57048;BME280;42934;54.294;18.598;2024-02-23T11:30:01;98929.31;;;9.38;64.40
57048;BME280;42934;54.294;18.598;2024-02-23T11:32:41;98926.44;;;9.43;64.62
57048;BME280;42934;54.294;18.598;2024-02-23T11:35:13;98939.38;;;9.46;65.72
57048;BME280;42934;54.294;18.598;2024-02-23T11:37:47;98950.78;;;9.45;65.23
57048;BME280;42934;54.294;18.598;2024-02-23T11:40:18;98947.91;;;9.49;65.80
57048;BME280;42934;54.294;18.598;2024-02-23T11:42:47;98955.03;;;9.47;66.10
57048;BME280;42934;54.294;18.598;2024-02-23T11:45:17;98940.66;;;9.39;64.61
57048;BME280;42934;54.294;18.598;2024-02-23T11:47:46;98951.88;;;9.41;64.49
57048;BME280;42934;54.294;18.598;2024-02-23T11:50:17;98943.94;;;9.42;64.12
57048;BME280;42934;54.294;18.598;2024-02-23T11:52:48;98946.22;;;9.32;63.57
57048;BME280;42934;54.294;18.598;2024-02-23T11:55:19;98962.34;;;9.41;64.44
57048;BME280;42934;54.294;18.598;2024-02-23T11:57:51;98959.91;;;9.38;63.90
57048;BME280;42934;54.294;18.598;2024-02-23T12:00:35;98969.56;;;9.53;64.83
57048;BME280;42934;54.294;18.598;2024-02-23T12:03:05;98962.25;;;9.58;64.66
57048;BME280;42934;54.294;18.598;2024-02-23T12:05:37;98973.09;;;9.52;64.00
57048;BME280;42934;54.294;18.598;2024-02-23T12:08:06;98972.69;;;9.60;65.20
57048;BME280;42934;54.294;18.598;2024-02-23T12:10:36;98983.41;;;9.55;63.83
57048;BME280;42934;54.294;18.598;2024-02-23T12:13:05;98992.84;;;9.73;64.67
57048;BME280;42934;54.294;18.598;2024-02-23T12:15:35;99000.78;;;9.88;65.60
57048;BME280;42934;54.294;18.598;2024-02-23T12:18:05;99002.56;;;10.03;65.11
57048;BME280;42934;54.294;18.598;2024-02-23T12:20:36;99000.69;;;10.21;64.04
57048;BME280;42934;54.294;18.598;2024-02-23T12:23:06;99001.00;;;10.31;63.70
57048;BME280;42934;54.294;18.598;2024-02-23T12:25:36;99010.50;;;10.33;62.60
57048;BME280;42934;54.294;18.598;2024-02-23T12:28:09;99012.81;;;10.38;62.24
57048;BME280;42934;54.294;18.598;2024-02-23T12:30:39;99006.84;;;10.36;61.38
57048;BME280;42934;54.294;18.598;2024-02-23T12:33:08;99016.66;;;10.32;60.11
57048;BME280;42934;54.294;18.598;2024-02-23T12:35:41;99014.78;;;10.34;61.93
57048;BME280;42934;54.294;18.598;2024-02-23T12:38:10;99010.72;;;10.44;62.53
57048;BME280;42934;54.294;18.598;2024-02-23T12:40:40;99013.59;;;10.40;62.20
57048;BME280;42934;54.294;18.598;2024-02-23T12:43:09;99012.56;;;10.42;62.05
57048;BME280;42934;54.294;18.598;2024-02-23T12:45:38;99014.34;;;10.42;62.23
57048;BME280;42934;54.294;18.598;2024-02-23T12:48:08;99018.75;;;10.41;62.28
57048;BME280;42934;54.294;18.598;2024-02-23T12:50:37;99017.41;;;10.34;62.14
57048;BME280;42934;54.294;18.598;2024-02-23T12:53:08;99022.41;;;10.39;61.72
57048;BME280;42934;54.294;18.598;2024-02-23T12:55:38;99032.38;;;10.32;60.73
57048;BME280;42934;54.294;18.598;2024-02-23T12:58:07;99031.88;;;10.41;61.68
57048;BME280;42934;54.294;18.598;2024-02-23T13:00:36;99020.69;;;10.38;62.05
57048;BME280;42934;54.294;18.598;2024-02-23T13:03:05;99013.19;;;10.32;61.40
57048;BME280;42934;54.294;18.598;2024-02-23T13:05:35;99033.91;;;10.36;62.39
57048;BME280;42934;54.294;18.598;2024-02-23T13:08:05;99037.13;;;10.41;63.70
57048;BME280;42934;54.294;18.598;2024-02-23T13:10:36;99033.59;;;10.57;63.71